Time;durP1;ratioP1;P1;durP2;ratioP2;P2;SDS_P1;SDS_P2;PMS_P1;PMS_P2;Temp;Humidity;BMP_temperature;BMP_pressure;BME280_temperature;BME280_humidity;BME280_pressure;Samples;Min_cycle;Max_cycle;Signal;HPM_P1;HPM_P2
2023/12/01 00:01:33;;;;;;;58.50;26.60;;;3.00;94.10;;;;;;776885;181;26448;-87
2023/12/01 00:04:00;;;;;;;32.07;20.93;;;3.00;94.70;;;;;;778328;181;26489;-87
2023/12/01 00:06:26;;;;;;;35.27;22.03;;;3.10;93.40;;;;;;787029;181;27028;-87
2023/12/01 00:08:53;;;;;;;34.17;21.27;;;2.90;92.80;;;;;;782499;181;26480;-87
2023/12/01 00:11:22;;;;;;;35.37;23.07;;;2.90;93.20;;;;;;781478;181;26474;-88
2023/12/01 00:13:49;;;;;;;34.20;21.23;;;2.90;93.70;;;;;;781707;181;26530;-87
2023/12/01 00:16:15;;;;;;;35.40;22.30;;;2.80;93.30;;;;;;775069;181;26448;-88
2023/12/01 00:18:42;;;;;;;47.37;26.70;;;2.70;93.30;;;;;;782240;181;27038;-86
2023/12/01 00:21:10;;;;;;;36.53;23.13;;;2.60;94.60;;;;;;778485;183;26504;-87
2023/12/01 00:23:37;;;;;;;45.73;26.70;;;2.60;94.20;;;;;;786442;181;26539;-87
2023/12/01 00:26:03;;;;;;;43.93;26.57;;;2.60;95.20;;;;;;788615;181;27097;-85
2023/12/01 00:28:37;;;;;;;40.90;25.40;;;2.80;93.90;;;;;;789256;181;26517;-87
2023/12/01 00:31:03;;;;;;;36.40;22.70;;;2.80;93.30;;;;;;784236;181;27046;-87
2023/12/01 00:33:30;;;;;;;38.80;23.70;;;2.80;93.30;;;;;;780254;181;26443;-87
2023/12/01 00:35:57;;;;;;;40.57;24.90;;;2.70;92.60;;;;;;782238;181;27030;-86
2023/12/01 00:38:26;;;;;;;39.30;23.33;;;2.60;93.00;;;;;;779501;181;27087;-86
2023/12/01 00:40:52;;;;;;;66.60;27.53;;;2.60;92.20;;;;;;778311;181;27050;-88
2023/12/01 00:43:28;;;;;;;44.43;26.30;;;2.50;93.10;;;;;;773078;183;26440;-86
2023/12/01 00:46:05;;;;;;;49.47;27.93;;;2.60;92.90;;;;;;773244;181;26448;-83
2023/12/01 00:48:31;;;;;;;44.20;25.93;;;2.50;93.40;;;;;;777102;183;27076;-87
2023/12/01 00:50:58;;;;;;;41.27;24.70;;;2.50;93.10;;;;;;772550;181;26481;-86
2023/12/01 00:53:24;;;;;;;58.63;27.80;;;2.60;92.60;;;;;;780224;181;27121;-87
2023/12/01 00:55:54;;;;;;;47.77;26.83;;;2.60;93.00;;;;;;779304;181;26518;-89
2023/12/01 00:58:25;;;;;;;75.77;32.70;;;2.50;92.60;;;;;;780655;181;26477;-86
2023/12/01 01:00:52;;;;;;;59.30;29.80;;;2.50;93.10;;;;;;780143;180;26486;-87
2023/12/01 01:03:22;;;;;;;49.27;28.33;;;2.60;94.00;;;;;;785876;181;27037;-88
2023/12/01 01:05:49;;;;;;;59.07;30.57;;;2.60;94.10;;;;;;782001;181;26516;-87
2023/12/01 01:08:16;;;;;;;127.57;37.77;;;2.60;94.30;;;;;;776683;181;26545;-85
2023/12/01 01:10:51;;;;;;;54.57;29.77;;;2.90;95.00;;;;;;782492;181;27140;-89
2023/12/01 01:13:20;;;;;;;60.90;33.17;;;2.90;93.40;;;;;;778130;181;26459;-87
2023/12/01 01:15:51;;;;;;;53.07;28.67;;;2.90;94.10;;;;;;776518;181;26460;-87
2023/12/01 01:18:19;;;;;;;58.83;29.47;;;2.80;92.80;;;;;;772779;181;26559;-87
2023/12/01 01:20:45;;;;;;;53.17;29.70;;;3.00;93.70;;;;;;780603;182;26454;-86
2023/12/01 01:23:12;;;;;;;61.97;32.93;;;3.00;93.50;;;;;;782359;181;27008;-87
2023/12/01 01:25:39;;;;;;;71.00;32.70;;;2.80;93.60;;;;;;776253;183;26994;-85
2023/12/01 01:28:18;;;;;;;78.60;34.53;;;2.80;94.00;;;;;;784840;181;26543;-87
2023/12/01 01:30:44;;;;;;;186.03;41.97;;;2.80;94.90;;;;;;786280;181;26448;-87
2023/12/01 01:33:16;;;;;;;66.97;34.13;;;2.80;94.70;;;;;;791779;181;27011;-86
2023/12/01 01:35:45;;;;;;;71.07;34.63;;;2.90;95.00;;;;;;780000;181;26561;-86
2023/12/01 01:38:14;;;;;;;62.40;33.07;;;3.00;94.90;;;;;;775977;181;26456;-87
2023/12/01 01:40:41;;;;;;;79.20;35.27;;;2.90;94.00;;;;;;782007;181;27002;-87
2023/12/01 01:43:08;;;;;;;67.83;33.07;;;2.90;94.70;;;;;;791476;181;26445;-87
2023/12/01 01:45:35;;;;;;;61.23;32.93;;;2.90;95.30;;;;;;791320;181;26504;-87
2023/12/01 01:48:03;;;;;;;56.37;30.93;;;3.00;94.50;;;;;;791177;181;26465;-86
2023/12/01 01:50:32;;;;;;;62.17;30.77;;;3.10;94.30;;;;;;778247;181;26981;-88
2023/12/01 01:52:59;;;;;;;66.37;32.53;;;3.10;93.50;;;;;;784189;181;26447;-86
2023/12/01 01:55:25;;;;;;;52.97;29.90;;;3.20;94.60;;;;;;779961;181;27001;-89
2023/12/01 01:57:52;;;;;;;79.13;37.20;;;3.10;93.20;;;;;;778205;183;27069;-86
2023/12/01 02:00:23;;;;;;;61.30;31.43;;;3.20;94.20;;;;;;780273;181;26465;-85
2023/12/01 02:02:50;;;;;;;57.27;31.00;;;3.20;93.20;;;;;;784769;181;26979;-87
2023/12/01 02:05:17;;;;;;;126.30;37.23;;;3.10;93.20;;;;;;782852;181;26490;-87
2023/12/01 02:07:52;;;;;;;63.57;33.37;;;3.10;93.80;;;;;;787439;181;26464;-86
2023/12/01 02:10:28;;;;;;;62.57;33.53;;;3.10;94.40;;;;;;785683;181;26498;-89
2023/12/01 02:12:54;;;;;;;71.53;35.53;;;3.00;94.60;;;;;;785765;181;27180;-90
2023/12/01 02:15:32;;;;;;;59.87;32.60;;;3.20;95.10;;;;;;784059;183;26472;-86
2023/12/01 02:17:57;;;;;;;71.17;33.63;;;3.20;95.10;;;;;;789178;182;26954;-86
2023/12/01 02:20:24;;;;;;;59.33;29.43;;;3.30;94.30;;;;;;790767;181;26476;-86
2023/12/01 02:22:51;;;;;;;58.30;31.40;;;3.20;94.10;;;;;;779359;181;26447;-87
2023/12/01 02:25:18;;;;;;;64.63;32.10;;;3.30;94.30;;;;;;791543;181;26447;-88
2023/12/01 02:27:44;;;;;;;56.83;30.00;;;3.30;94.20;;;;;;780800;181;26520;-86
2023/12/01 02:30:11;;;;;;;60.07;31.10;;;3.20;93.30;;;;;;786876;179;26451;-89
2023/12/01 02:32:39;;;;;;;62.03;31.73;;;3.20;93.80;;;;;;781892;181;26451;-88
2023/12/01 02:35:09;;;;;;;63.13;32.90;;;3.40;93.50;;;;;;784984;180;26439;-87
2023/12/01 02:37:33;;;;;;;63.47;32.53;;;3.30;93.30;;;;;;783202;182;26468;-86
2023/12/01 02:40:04;;;;;;;47.20;27.33;;;3.50;93.70;;;;;;788117;181;26442;-85
2023/12/01 02:42:28;;;;;;;50.10;27.83;;;3.30;92.10;;;;;;767935;182;26972;-86
2023/12/01 02:44:55;;;;;;;42.93;24.97;;;3.20;91.60;;;;;;782542;181;26448;-86
2023/12/01 02:47:22;;;;;;;42.60;26.23;;;3.10;91.70;;;;;;789010;181;26461;-87
2023/12/01 02:49:48;;;;;;;45.00;25.37;;;3.20;91.60;;;;;;792037;181;27029;-89
2023/12/01 02:52:15;;;;;;;74.57;29.87;;;3.10;91.90;;;;;;788076;181;26466;-87
2023/12/01 02:54:42;;;;;;;47.60;25.70;;;3.10;92.50;;;;;;783627;181;26993;-86
2023/12/01 02:57:08;;;;;;;45.47;26.50;;;3.20;92.50;;;;;;773850;181;26468;-86
2023/12/01 02:59:35;;;;;;;48.93;27.53;;;3.10;91.60;;;;;;782385;183;26452;-87
2023/12/01 03:02:02;;;;;;;56.60;28.37;;;3.10;92.20;;;;;;779863;181;26478;-88
2023/12/01 03:04:28;;;;;;;45.33;27.10;;;3.20;92.00;;;;;;783832;181;26483;-87
2023/12/01 03:06:55;;;;;;;45.27;26.13;;;3.30;92.80;;;;;;777560;181;26481;-87
2023/12/01 03:09:21;;;;;;;44.53;25.20;;;3.10;92.40;;;;;;783633;181;26526;-86
2023/12/01 03:11:49;;;;;;;43.97;24.90;;;3.10;92.10;;;;;;779258;183;26448;-89
2023/12/01 03:14:14;;;;;;;46.57;26.10;;;3.10;92.40;;;;;;780314;182;26440;-88
2023/12/01 03:16:41;;;;;;;46.70;25.80;;;2.90;91.80;;;;;;775235;183;26495;-86
2023/12/01 03:19:12;;;;;;;41.70;24.30;;;2.80;92.60;;;;;;773201;183;26994;-87
2023/12/01 03:21:39;;;;;;;41.33;23.70;;;2.70;93.00;;;;;;773567;182;26448;-86
2023/12/01 03:24:09;;;;;;;48.13;26.30;;;2.70;92.80;;;;;;773846;181;26499;-87
2023/12/01 03:29:21;;;;;;;40.80;22.73;;;2.90;92.50;;;;;;717856;182;26558;-86
2023/12/01 03:31:49;;;;;;;41.17;23.17;;;2.70;91.20;;;;;;773667;185;26482;-87
2023/12/01 03:34:15;;;;;;;38.47;21.73;;;2.70;92.20;;;;;;778100;182;26479;-87
2023/12/01 03:36:43;;;;;;;45.57;24.80;;;2.70;91.30;;;;;;785028;183;26524;-87
2023/12/01 03:39:13;;;;;;;43.87;23.37;;;2.80;91.90;;;;;;780405;183;27115;-87
2023/12/01 03:41:40;;;;;;;40.03;23.07;;;2.90;91.90;;;;;;774957;183;27112;-90
2023/12/01 03:44:07;;;;;;;47.60;25.83;;;2.80;91.20;;;;;;775182;183;26490;-87
2023/12/01 03:46:37;;;;;;;41.47;23.83;;;2.80;92.00;;;;;;781967;181;26500;-88
2023/12/01 03:49:04;;;;;;;45.03;25.27;;;2.70;91.40;;;;;;776496;181;27226;-88
2023/12/01 03:51:31;;;;;;;51.70;26.00;;;2.60;91.60;;;;;;778380;184;27056;-87
2023/12/01 03:54:00;;;;;;;43.60;25.07;;;2.60;92.40;;;;;;773885;184;26481;-87
2023/12/01 03:56:27;;;;;;;43.87;24.37;;;2.70;92.40;;;;;;776511;184;26520;-87
2023/12/01 03:58:54;;;;;;;49.07;27.03;;;2.60;91.60;;;;;;775521;184;27073;-86
2023/12/01 04:01:21;;;;;;;48.07;25.87;;;2.60;92.30;;;;;;761600;183;26492;-87
2023/12/01 04:03:47;;;;;;;48.37;25.97;;;2.30;91.20;;;;;;781469;182;27108;-86
2023/12/01 04:06:19;;;;;;;50.53;27.03;;;2.40;92.40;;;;;;777082;182;26477;-87
2023/12/01 04:08:54;;;;;;;46.60;27.27;;;2.30;92.00;;;;;;778151;178;26489;-87
2023/12/01 04:11:20;;;;;;;45.57;25.43;;;2.50;92.90;;;;;;766320;185;26508;-87
2023/12/01 04:13:50;;;;;;;55.57;30.37;;;2.60;91.50;;;;;;774388;183;26497;-86
2023/12/01 04:16:18;;;;;;;55.30;29.27;;;2.50;91.80;;;;;;772854;184;26485;-87
2023/12/01 04:18:45;;;;;;;53.50;28.73;;;2.50;92.50;;;;;;785400;182;27029;-87
2023/12/01 04:21:14;;;;;;;48.60;27.13;;;2.40;91.70;;;;;;788233;181;26630;-86
2023/12/01 04:23:43;;;;;;;54.87;28.87;;;2.40;91.60;;;;;;788413;180;26514;-87
2023/12/01 04:26:16;;;;;;;52.77;27.67;;;2.40;92.10;;;;;;787843;181;27012;-86
2023/12/01 04:28:43;;;;;;;51.97;26.50;;;2.40;92.00;;;;;;785812;180;26525;-89
2023/12/01 04:31:22;;;;;;;43.60;25.93;;;2.40;92.30;;;;;;788814;178;27014;-87
2023/12/01 04:33:49;;;;;;;51.13;27.10;;;2.30;91.80;;;;;;781212;181;26452;-87
2023/12/01 04:36:15;;;;;;;41.13;24.40;;;2.30;91.80;;;;;;789147;178;26452;-88
2023/12/01 04:38:42;;;;;;;51.87;28.90;;;2.30;91.40;;;;;;785682;177;26473;-88
2023/12/01 04:41:09;;;;;;;51.27;28.50;;;2.50;92.20;;;;;;783162;181;26535;-89
2023/12/01 04:43:35;;;;;;;47.03;24.70;;;2.60;92.70;;;;;;780399;181;26453;-88
2023/12/01 04:46:06;;;;;;;49.40;27.97;;;2.50;91.50;;;;;;779387;178;26447;-88
2023/12/01 04:48:32;;;;;;;46.67;25.67;;;2.60;92.70;;;;;;788191;182;27073;-87
2023/12/01 04:50:59;;;;;;;50.80;27.93;;;2.60;92.60;;;;;;788565;182;26465;-88
2023/12/01 04:53:26;;;;;;;45.20;25.47;;;2.50;91.80;;;;;;789317;179;26489;-89
2023/12/01 04:55:52;;;;;;;47.13;26.20;;;2.40;91.10;;;;;;790539;180;26445;-88
2023/12/01 04:58:19;;;;;;;53.10;27.53;;;2.50;92.20;;;;;;789333;180;26999;-91
2023/12/01 05:00:45;;;;;;;49.23;26.00;;;2.50;92.90;;;;;;783608;181;26489;-86
2023/12/01 05:03:12;;;;;;;39.20;23.30;;;2.40;91.60;;;;;;788137;181;26551;-89
2023/12/01 05:05:42;;;;;;;40.77;23.00;;;2.70;91.30;;;;;;790333;180;26464;-89
2023/12/01 05:08:09;;;;;;;45.20;23.80;;;2.80;90.70;;;;;;789584;181;27091;-91
2023/12/01 05:10:42;;;;;;;37.10;22.97;;;2.80;90.70;;;;;;785597;181;26469;-88
2023/12/01 05:13:09;;;;;;;48.73;25.93;;;2.90;90.70;;;;;;771763;182;26463;-89
2023/12/01 05:15:46;;;;;;;40.40;22.83;;;2.90;91.90;;;;;;777260;181;26976;-90
2023/12/01 05:18:12;;;;;;;39.83;24.10;;;2.90;90.90;;;;;;778045;184;26481;-90
2023/12/01 05:20:45;;;;;;;37.20;22.47;;;2.90;91.30;;;;;;783594;181;26548;-87
2023/12/01 05:23:25;;;;;;;43.07;26.00;;;2.90;90.40;;;;;;787076;180;27050;-88
2023/12/01 05:25:53;;;;;;;42.43;24.77;;;2.90;91.50;;;;;;788799;181;26460;-91
2023/12/01 05:28:18;;;;;;;37.83;22.17;;;2.90;91.10;;;;;;792596;177;26497;-88
2023/12/01 05:30:45;;;;;;;44.40;25.90;;;2.90;90.70;;;;;;789926;180;26489;-89
2023/12/01 05:33:11;;;;;;;57.17;28.07;;;2.90;91.20;;;;;;782654;180;26648;-88
2023/12/01 05:35:37;;;;;;;39.60;23.07;;;2.90;92.80;;;;;;780270;180;26545;-89
2023/12/01 05:38:04;;;;;;;40.07;24.53;;;2.80;91.70;;;;;;781849;181;26602;-88
2023/12/01 05:40:34;;;;;;;43.53;24.97;;;2.70;91.80;;;;;;789348;181;26478;-89
2023/12/01 05:43:00;;;;;;;42.03;23.60;;;2.80;91.70;;;;;;783496;180;26515;-89
2023/12/01 05:45:27;;;;;;;38.20;24.03;;;2.90;92.40;;;;;;790462;181;26449;-89
2023/12/01 05:47:54;;;;;;;42.87;24.87;;;2.80;92.60;;;;;;792511;180;26513;-90
2023/12/01 05:50:21;;;;;;;46.80;25.83;;;3.00;93.10;;;;;;789258;180;27080;-88
2023/12/01 05:52:49;;;;;;;36.30;22.27;;;3.00;93.00;;;;;;787550;178;27001;-90
2023/12/01 05:55:16;;;;;;;44.30;25.20;;;2.90;90.60;;;;;;779233;181;26445;-89
2023/12/01 05:57:45;;;;;;;35.03;22.20;;;3.00;91.60;;;;;;788762;178;26468;-88
2023/12/01 06:00:18;;;;;;;40.93;23.30;;;3.00;92.50;;;;;;790665;180;26567;-91
2023/12/01 06:02:45;;;;;;;38.57;23.57;;;2.90;92.30;;;;;;783491;178;27023;-89
2023/12/01 06:05:12;;;;;;;35.43;21.43;;;3.00;92.40;;;;;;792772;179;26474;-88
2023/12/01 06:07:41;;;;;;;35.50;20.80;;;3.10;90.40;;;;;;793848;177;26474;-90
2023/12/01 06:10:07;;;;;;;34.27;19.93;;;3.10;89.20;;;;;;785953;177;26467;-88
2023/12/01 06:12:33;;;;;;;31.10;19.00;;;3.20;89.70;;;;;;786655;181;26454;-88
2023/12/01 06:15:00;;;;;;;33.43;19.50;;;3.20;88.00;;;;;;778979;180;26459;-88
2023/12/01 06:17:27;;;;;;;31.23;19.27;;;3.10;87.50;;;;;;779271;181;26532;-88
2023/12/01 06:19:57;;;;;;;34.00;20.93;;;3.20;88.80;;;;;;781183;181;26473;-88
2023/12/01 06:22:23;;;;;;;31.00;19.33;;;3.20;90.20;;;;;;785528;181;26512;-90
2023/12/01 06:24:50;;;;;;;38.57;22.67;;;3.10;88.00;;;;;;765906;181;26447;-89
2023/12/01 06:27:17;;;;;;;34.00;21.17;;;3.10;91.00;;;;;;789818;177;28105;-89
2023/12/01 06:29:44;;;;;;;32.53;19.70;;;3.10;90.60;;;;;;779021;180;26453;-89
2023/12/01 06:32:10;;;;;;;32.50;19.43;;;2.90;92.70;;;;;;784352;177;26496;-88
2023/12/01 06:34:39;;;;;;;31.67;19.90;;;3.10;91.30;;;;;;783822;178;26456;-90
2023/12/01 06:37:14;;;;;;;32.33;18.97;;;3.10;90.50;;;;;;780050;181;26464;-89
2023/12/01 06:39:41;;;;;;;34.13;20.87;;;3.10;91.50;;;;;;789337;180;26488;-89
2023/12/01 06:42:18;;;;;;;39.83;20.30;;;3.10;91.70;;;;;;783532;180;26649;-89
2023/12/01 06:44:44;;;;;;;31.80;19.20;;;3.00;90.90;;;;;;781985;181;26455;-89
2023/12/01 06:47:20;;;;;;;32.70;20.23;;;2.90;89.60;;;;;;786231;181;26789;-89
2023/12/01 06:49:47;;;;;;;31.47;19.30;;;2.90;91.50;;;;;;784626;181;26487;-88
2023/12/01 06:52:15;;;;;;;28.83;17.97;;;2.90;91.50;;;;;;784530;181;27017;-88
2023/12/01 06:54:40;;;;;;;36.93;20.80;;;2.80;91.80;;;;;;786476;181;26461;-86
2023/12/01 06:57:07;;;;;;;31.83;18.13;;;3.00;91.90;;;;;;786178;177;26483;-87
2023/12/01 06:59:34;;;;;;;23.97;15.33;;;3.00;91.20;;;;;;782307;180;26534;-91
2023/12/01 07:02:00;;;;;;;26.73;14.97;;;3.00;90.90;;;;;;785346;180;26463;-91
2023/12/01 07:04:27;;;;;;;24.90;14.97;;;3.10;90.10;;;;;;792710;181;26505;-90
2023/12/01 07:07:04;;;;;;;;;;;;;;;;;;;;;
2023/12/01 07:10:09;;;;;;;25.50;15.17;;;3.10;88.70;;;;;;792021;181;26971;-88
2023/12/01 07:12:36;;;;;;;24.90;14.87;;;3.10;89.20;;;;;;786915;178;26458;-88
2023/12/01 07:15:02;;;;;;;24.60;14.70;;;3.20;90.20;;;;;;781032;181;26481;-87
2023/12/01 07:17:29;;;;;;;19.77;12.77;;;3.20;87.70;;;;;;794665;179;26484;-91
2023/12/01 07:19:59;;;;;;;19.90;11.43;;;3.30;87.30;;;;;;795375;180;26995;-89
2023/12/01 07:22:25;;;;;;;17.20;10.77;;;3.30;88.50;;;;;;787974;180;26464;-88
2023/12/01 07:24:54;;;;;;;19.30;11.97;;;3.20;86.80;;;;;;785422;181;27003;-89
2023/12/01 07:27:25;;;;;;;18.87;12.47;;;3.10;89.80;;;;;;784506;178;26493;-88
2023/12/01 07:29:47;;;;;;;18.23;10.93;;;3.20;89.90;;;;;;790073;180;26514;-89
2023/12/01 07:32:13;;;;;;;16.37;11.33;;;3.30;86.90;;;;;;785976;181;26451;-89
2023/12/01 07:40:12;;;;;;;15.00;10.00;;;3.20;86.40;;;;;;786465;181;27142;-87
2023/12/01 07:42:40;;;;;;;17.13;11.07;;;3.10;84.60;;;;;;786183;180;26497;-89
2023/12/01 07:45:09;;;;;;;19.13;12.30;;;3.10;86.60;;;;;;789745;181;27040;-89
2023/12/01 07:47:35;;;;;;;20.10;13.07;;;3.00;88.30;;;;;;789661;178;26496;-89
2023/12/01 07:50:15;;;;;;;16.47;9.83;;;3.00;91.30;;;;;;789244;177;27037;-88
2023/12/01 07:55:52;;;;;;;16.67;10.60;;;3.00;90.20;;;;;;791011;178;26527;-87
2023/12/01 07:58:18;;;;;;;16.50;10.57;;;3.00;88.60;;;;;;780472;182;27043;-88
2023/12/01 08:06:17;;;;;;;18.17;11.57;;;3.10;88.70;;;;;;786285;181;26441;-88
2023/12/01 08:08:43;;;;;;;20.43;12.30;;;3.20;90.70;;;;;;785626;181;26545;-88
2023/12/01 08:11:19;;;;;;;15.77;9.93;;;3.10;91.20;;;;;;784119;181;26447;-89
2023/12/01 08:54:01;;;;;;;15.93;10.50;;;3.00;88.40;;;;;;758119;186;26527;-90
2023/12/01 08:59:49;;;;;;;;;;;;;;;;;;;;;
2023/12/01 09:02:15;;;;;;;19.23;11.57;;;3.00;88.80;;;;;;753845;181;26514;-87
2023/12/01 09:04:42;;;;;;;17.87;10.77;;;3.10;90.10;;;;;;752269;191;26601;-89
2023/12/01 09:07:09;;;;;;;17.47;9.93;;;3.00;88.90;;;;;;770446;185;26503;-86
2023/12/01 09:09:35;;;;;;;17.67;11.50;;;3.00;90.30;;;;;;760417;185;26554;-89
2023/12/01 09:12:02;;;;;;;15.20;9.87;;;3.00;90.00;;;;;;764428;184;26457;-89
2023/12/01 09:14:30;;;;;;;13.87;8.70;;;3.00;88.30;;;;;;747361;188;26506;-88
2023/12/01 09:16:55;;;;;;;15.00;9.33;;;3.00;85.40;;;;;;759565;189;26529;-87
2023/12/01 09:19:22;;;;;;;15.00;8.57;;;3.00;87.30;;;;;;759010;189;27112;-89
2023/12/01 09:21:48;;;;;;;11.90;7.60;;;3.00;85.70;;;;;;761872;185;26577;-89
2023/12/01 09:24:15;;;;;;;12.57;8.50;;;2.90;83.70;;;;;;749066;189;27094;-88
2023/12/01 09:26:41;;;;;;;13.13;8.73;;;2.90;87.00;;;;;;760125;189;26525;-87
2023/12/01 09:29:08;;;;;;;14.27;8.70;;;2.90;87.50;;;;;;759826;185;26563;-89
2023/12/01 09:31:35;;;;;;;12.80;8.17;;;2.90;86.90;;;;;;759475;185;26517;-88
2023/12/01 09:34:01;;;;;;;14.90;8.90;;;3.00;86.30;;;;;;761810;185;26626;-88
2023/12/01 09:36:28;;;;;;;16.27;9.60;;;3.00;87.30;;;;;;762006;188;27059;-87
2023/12/01 09:38:54;;;;;;;14.00;8.90;;;3.10;87.90;;;;;;761911;188;28245;-88
2023/12/01 09:41:21;;;;;;;13.67;9.27;;;3.00;86.70;;;;;;763032;186;26671;-87
2023/12/01 09:43:48;;;;;;;14.63;8.83;;;3.10;88.00;;;;;;750255;186;27047;-88
2023/12/01 09:46:15;;;;;;;14.73;9.37;;;3.10;88.10;;;;;;763136;188;26496;-87
2023/12/01 09:48:42;;;;;;;15.47;8.47;;;3.10;86.40;;;;;;762569;184;26488;-87
2023/12/01 09:51:08;;;;;;;16.63;9.17;;;3.20;86.30;;;;;;746807;190;27093;-87
2023/12/01 09:53:35;;;;;;;17.97;10.17;;;3.20;87.30;;;;;;744968;188;26548;-87
2023/12/01 09:56:03;;;;;;;12.83;8.67;;;3.10;89.70;;;;;;736994;190;26632;-87
2023/12/01 09:58:28;;;;;;;15.53;9.80;;;3.10;87.30;;;;;;735397;195;26537;-87
2023/12/01 10:00:56;;;;;;;15.93;10.33;;;3.20;86.30;;;;;;737119;195;26541;-87
2023/12/01 10:03:21;;;;;;;16.00;10.20;;;3.20;86.30;;;;;;770818;181;26513;-87
2023/12/01 10:05:48;;;;;;;13.87;9.80;;;3.20;87.40;;;;;;799449;178;26443;-88
2023/12/01 10:08:17;;;;;;;13.50;9.13;;;3.30;88.20;;;;;;805173;178;26481;-88
2023/12/01 10:10:44;;;;;;;14.90;9.60;;;3.30;87.20;;;;;;775939;185;27071;-87
2023/12/01 10:13:11;;;;;;;15.50;9.50;;;3.30;86.70;;;;;;795103;178;26452;-88
2023/12/01 10:15:38;;;;;;;16.67;9.67;;;3.30;90.00;;;;;;800167;174;26437;-87
2023/12/01 10:18:10;;;;;;;15.30;10.17;;;3.20;89.80;;;;;;775267;183;26462;-86
2023/12/01 10:20:37;;;;;;;15.53;9.27;;;3.30;90.90;;;;;;797331;179;26454;-86
2023/12/01 10:23:04;;;;;;;13.77;9.73;;;3.20;87.90;;;;;;798225;179;27004;-87
2023/12/01 10:25:31;;;;;;;13.90;9.43;;;3.20;87.70;;;;;;794841;179;26451;-87
2023/12/01 10:27:58;;;;;;;14.50;9.27;;;3.30;87.90;;;;;;798344;180;26502;-87
2023/12/01 10:30:24;;;;;;;13.10;8.67;;;3.30;86.40;;;;;;795035;180;26451;-87
2023/12/01 10:32:51;;;;;;;13.03;9.87;;;3.20;86.00;;;;;;802385;176;26458;-88
2023/12/01 10:35:18;;;;;;;15.43;10.07;;;3.20;85.70;;;;;;799240;179;26432;-87
2023/12/01 10:37:45;;;;;;;12.33;8.70;;;3.20;87.70;;;;;;780928;181;26581;-87
2023/12/01 10:40:13;;;;;;;16.27;11.00;;;3.10;86.50;;;;;;796964;177;26438;-87
2023/12/01 10:42:38;;;;;;;14.57;9.83;;;3.10;87.70;;;;;;785463;177;26482;-86
2023/12/01 10:45:10;;;;;;;15.83;9.37;;;3.20;87.80;;;;;;798211;178;26437;-87
2023/12/01 10:47:36;;;;;;;14.43;10.27;;;3.10;87.80;;;;;;796360;178;26457;-87
2023/12/01 10:50:05;;;;;;;15.60;9.60;;;3.00;87.60;;;;;;794757;181;26523;-86
2023/12/01 10:52:30;;;;;;;15.90;10.03;;;3.10;89.00;;;;;;801448;174;26450;-86
2023/12/01 10:54:57;;;;;;;13.63;7.93;;;3.30;89.80;;;;;;781189;182;26469;-87
2023/12/01 10:57:34;;;;;;;12.17;7.40;;;3.50;87.40;;;;;;808423;175;26459;-86
2023/12/01 11:00:09;;;;;;;9.00;6.20;;;3.50;87.50;;;;;;806229;178;27007;-87
2023/12/01 11:02:28;;;;;;;9.23;6.80;;;3.50;82.50;;;;;;805674;177;26994;-87
2023/12/01 11:04:54;;;;;;;16.43;10.07;;;3.70;84.90;;;;;;780197;183;26529;-86
2023/12/01 11:07:40;;;;;;;14.90;8.50;;;3.70;84.40;;;;;;808255;176;27020;-89
2023/12/01 11:10:12;;;;;;;11.17;7.60;;;3.70;85.90;;;;;;802267;178;26439;-87
2023/12/01 11:13:10;;;;;;;11.17;7.33;;;3.60;82.10;;;;;;798976;179;27108;-87
2023/12/01 11:15:36;;;;;;;11.23;6.07;;;3.70;83.50;;;;;;778587;179;26474;-87
2023/12/01 11:18:03;;;;;;;10.93;6.83;;;3.60;79.80;;;;;;797604;179;26434;-87
2023/12/01 11:20:33;;;;;;;6.73;5.70;;;3.50;78.30;;;;;;778434;184;26557;-87
2023/12/01 11:23:14;;;;;;;7.57;5.27;;;3.70;80.10;;;;;;804029;178;26448;-87
2023/12/01 11:25:43;;;;;;;11.00;6.80;;;3.70;78.30;;;;;;808346;177;27018;-88
2023/12/01 11:31:35;;;;;;;8.17;5.50;;;3.70;83.50;;;;;;802517;178;26435;-87
2023/12/01 11:33:52;;;;;;;9.00;6.07;;;3.70;78.90;;;;;;803993;177;26529;-84
2023/12/01 11:36:25;;;;;;;8.27;5.57;;;3.80;84.00;;;;;;803184;178;28076;-89
2023/12/01 11:39:14;;;;;;;11.43;7.17;;;3.60;81.10;;;;;;801628;178;31704;-88
2023/12/01 11:41:45;;;;;;;8.53;5.93;;;3.70;85.50;;;;;;802380;178;26427;-88
2023/12/01 11:44:11;;;;;;;9.50;6.43;;;3.70;85.70;;;;;;782903;182;26795;-88
2023/12/01 11:46:41;;;;;;;9.50;6.77;;;3.80;83.40;;;;;;787125;181;26468;-86
2023/12/01 11:49:11;;;;;;;7.83;5.83;;;3.90;81.70;;;;;;793021;180;26493;-89
2023/12/01 11:51:37;;;;;;;7.63;6.23;;;3.80;78.60;;;;;;792945;181;27009;-88
2023/12/01 11:54:08;;;;;;;9.87;6.50;;;3.80;80.00;;;;;;793203;180;26476;-89
2023/12/01 11:56:35;;;;;;;12.77;7.80;;;3.90;80.80;;;;;;790757;180;26466;-89
2023/12/01 11:59:02;;;;;;;9.53;6.93;;;3.90;85.70;;;;;;785215;181;26449;-87
2023/12/01 12:01:33;;;;;;;17.53;10.27;;;3.90;81.20;;;;;;784917;181;26469;-87
2023/12/01 12:03:59;;;;;;;12.70;7.77;;;3.90;83.20;;;;;;790065;179;26483;-86
2023/12/01 12:06:25;;;;;;;15.87;9.10;;;4.00;84.70;;;;;;799489;178;26478;-88
2023/12/01 12:08:54;;;;;;;9.60;7.10;;;3.90;84.70;;;;;;779911;184;28115;-87
2023/12/01 12:11:23;;;;;;;12.10;8.60;;;3.90;79.50;;;;;;808278;178;27002;-86
2023/12/01 12:13:53;;;;;;;11.33;8.03;;;3.70;79.10;;;;;;773278;183;26482;-85
2023/12/01 12:16:21;;;;;;;13.67;9.00;;;3.70;82.60;;;;;;769917;186;26483;-86
2023/12/01 12:18:49;;;;;;;13.03;7.73;;;3.80;82.80;;;;;;803497;176;26982;-90
2023/12/01 12:21:16;;;;;;;13.67;8.60;;;3.80;80.70;;;;;;803872;178;26425;-89
2023/12/01 12:23:43;;;;;;;13.67;8.43;;;3.60;79.20;;;;;;801369;177;26493;-88
2023/12/01 12:26:21;;;;;;;12.37;8.23;;;3.60;81.60;;;;;;800479;175;26454;-88
2023/12/01 12:28:52;;;;;;;12.87;7.87;;;3.40;78.90;;;;;;778892;184;26468;-89
2023/12/01 12:31:18;;;;;;;11.87;7.90;;;3.60;79.90;;;;;;806242;176;26422;-89
2023/12/01 12:33:45;;;;;;;13.00;7.77;;;3.50;84.10;;;;;;790212;180;26717;-88
2023/12/01 12:36:13;;;;;;;14.93;8.53;;;3.50;82.70;;;;;;783990;177;26464;-89
2023/12/01 12:38:40;;;;;;;14.07;8.67;;;3.40;82.10;;;;;;804629;175;26481;-89
2023/12/01 12:41:18;;;;;;;13.43;8.73;;;3.40;80.80;;;;;;802486;178;27046;-88
2023/12/01 12:43:47;;;;;;;11.10;8.13;;;3.50;82.60;;;;;;801065;179;27015;-89
2023/12/01 12:46:14;;;;;;;13.50;8.60;;;3.50;82.90;;;;;;777382;182;27030;-86
2023/12/01 12:48:41;;;;;;;16.27;9.47;;;3.50;81.60;;;;;;809560;176;26984;-88
2023/12/01 12:51:08;;;;;;;12.60;8.53;;;3.50;84.70;;;;;;809480;177;26424;-88
2023/12/01 12:53:34;;;;;;;13.03;8.20;;;3.60;83.90;;;;;;796353;180;26584;-88
2023/12/01 12:56:01;;;;;;;11.07;8.10;;;3.60;81.00;;;;;;795673;179;26434;-88
2023/12/01 12:58:34;;;;;;;12.73;8.33;;;3.50;84.00;;;;;;793918;178;26475;-88
2023/12/01 13:01:17;;;;;;;14.03;8.73;;;3.60;84.00;;;;;;795279;178;26455;-88
2023/12/01 13:03:46;;;;;;;13.40;9.53;;;3.60;79.80;;;;;;799355;176;26506;-90
2023/12/01 13:06:12;;;;;;;17.80;9.73;;;3.60;78.70;;;;;;802473;179;27031;-88
2023/12/01 13:08:39;;;;;;;12.17;7.33;;;3.60;81.50;;;;;;802651;178;26437;-87
2023/12/01 13:11:06;;;;;;;11.87;6.80;;;3.70;80.80;;;;;;802613;179;26498;-87
2023/12/01 13:13:35;;;;;;;14.50;7.90;;;3.60;77.20;;;;;;798788;177;26985;-87
2023/12/01 13:16:03;;;;;;;11.13;7.93;;;3.60;78.50;;;;;;803333;176;26432;-89
2023/12/01 13:18:30;;;;;;;9.03;6.40;;;3.70;80.70;;;;;;801191;178;27053;-88
2023/12/01 13:20:57;;;;;;;12.83;8.33;;;3.60;77.20;;;;;;800266;176;26423;-89
2023/12/01 13:23:23;;;;;;;11.53;7.17;;;3.60;76.60;;;;;;797426;176;26446;-88
2023/12/01 13:28:48;;;;;;;9.40;6.30;;;3.70;77.40;;;;;;808996;177;27015;-89
2023/12/01 13:31:14;;;;;;;11.97;8.00;;;3.50;75.70;;;;;;778497;184;26474;-88
2023/12/01 13:33:41;;;;;;;13.60;8.60;;;3.60;81.90;;;;;;786314;177;27019;-89
2023/12/01 13:36:12;;;;;;;13.07;8.97;;;3.50;84.50;;;;;;794145;180;26440;-88
2023/12/01 13:38:38;;;;;;;11.37;7.70;;;3.50;86.80;;;;;;792574;181;26997;-89
2023/12/01 13:41:16;;;;;;;9.97;7.07;;;3.70;81.90;;;;;;790468;181;26453;-89
2023/12/01 13:46:46;;;;;;;12.97;8.70;;;3.80;84.60;;;;;;791601;179;27045;-88
2023/12/01 13:54:46;;;;;;;14.40;9.20;;;3.80;82.50;;;;;;734604;177;26521;-87
2023/12/01 13:57:12;;;;;;;14.03;8.57;;;3.80;81.50;;;;;;778182;180;26512;-87
2023/12/01 13:59:39;;;;;;;12.63;7.97;;;3.80;79.30;;;;;;791841;180;26440;-87
2023/12/01 14:02:06;;;;;;;13.57;8.83;;;3.70;78.80;;;;;;764853;184;26474;-87
2023/12/01 14:04:32;;;;;;;14.90;9.10;;;3.80;78.70;;;;;;772047;184;26529;-90